sensor_id;sensor_type;location;lat;lon;timestamp;pressure;altitude;pressure_sealevel;temperature;humidity
42169;BME280;27838;43.858;25.974;2023-05-25T00:00:56;100879.84;;;23.08;46.64
42169;BME280;27838;43.858;25.974;2023-05-25T00:03:22;100879.84;;;23.08;46.95
42169;BME280;27838;43.858;25.974;2023-05-25T00:05:51;100884.38;;;23.06;47.03
42169;BME280;27838;43.858;25.974;2023-05-25T00:08:18;100890.59;;;23.05;47.05
42169;BME280;27838;43.858;25.974;2023-05-25T00:10:44;100882.94;;;22.98;47.51
42169;BME280;27838;43.858;25.974;2023-05-25T00:13:11;100897.09;;;22.99;47.77
42169;BME280;27838;43.858;25.974;2023-05-25T00:15:37;100897.22;;;22.96;47.41
42169;BME280;27838;43.858;25.974;2023-05-25T00:18:04;100887.63;;;22.93;47.55
42169;BME280;27838;43.858;25.974;2023-05-25T00:20:30;100885.03;;;22.92;47.47
42169;BME280;27838;43.858;25.974;2023-05-25T00:22:58;100893.94;;;22.91;47.50
42169;BME280;27838;43.858;25.974;2023-05-25T00:25:26;100878.44;;;22.81;47.61
42169;BME280;27838;43.858;25.974;2023-05-25T00:27:53;100891.53;;;22.86;47.78
42169;BME280;27838;43.858;25.974;2023-05-25T00:30:19;100887.28;;;22.82;47.83
42169;BME280;27838;43.858;25.974;2023-05-25T00:32:46;100884.16;;;22.74;47.68
42169;BME280;27838;43.858;25.974;2023-05-25T00:35:13;100888.28;;;22.79;47.78
42169;BME280;27838;43.858;25.974;2023-05-25T00:37:39;100900.09;;;22.74;47.96
42169;BME280;27838;43.858;25.974;2023-05-25T00:40:07;100893.28;;;22.68;48.59
42169;BME280;27838;43.858;25.974;2023-05-25T00:42:37;100890.81;;;22.63;48.36
42169;BME280;27838;43.858;25.974;2023-05-25T00:45:06;100896.94;;;22.66;48.52
42169;BME280;27838;43.858;25.974;2023-05-25T00:47:33;100894.47;;;22.61;48.75
42169;BME280;27838;43.858;25.974;2023-05-25T00:50:00;100893.69;;;22.59;48.89
42169;BME280;27838;43.858;25.974;2023-05-25T00:52:27;100901.72;;;22.57;48.87
42169;BME280;27838;43.858;25.974;2023-05-25T00:54:54;100896.72;;;22.51;49.12
42169;BME280;27838;43.858;25.974;2023-05-25T00:57:24;100900.31;;;22.50;49.11
42169;BME280;27838;43.858;25.974;2023-05-25T00:59:54;100903.03;;;22.49;49.26
42169;BME280;27838;43.858;25.974;2023-05-25T01:02:24;100904.03;;;22.46;49.59
42169;BME280;27838;43.858;25.974;2023-05-25T01:04:55;100901.59;;;22.41;49.60
42169;BME280;27838;43.858;25.974;2023-05-25T01:07:25;100904.31;;;22.40;49.81
42169;BME280;27838;43.858;25.974;2023-05-25T01:10:05;100899.19;;;22.37;49.71
42169;BME280;27838;43.858;25.974;2023-05-25T01:12:36;100892.44;;;22.30;50.39
42169;BME280;27838;43.858;25.974;2023-05-25T01:15:04;100891.53;;;22.29;50.28
42169;BME280;27838;43.858;25.974;2023-05-25T01:17:31;100882.81;;;22.25;50.47
42169;BME280;27838;43.858;25.974;2023-05-25T01:20:02;100892.53;;;22.27;50.69
42169;BME280;27838;43.858;25.974;2023-05-25T01:22:39;100892.53;;;22.27;50.84
42169;BME280;27838;43.858;25.974;2023-05-25T01:25:12;100892.59;;;22.25;50.99
42169;BME280;27838;43.858;25.974;2023-05-25T01:27:46;100889.22;;;22.21;51.02
42169;BME280;27838;43.858;25.974;2023-05-25T01:30:15;100893.41;;;22.27;50.98
42169;BME280;27838;43.858;25.974;2023-05-25T01:32:42;100884.63;;;22.25;51.00
42169;BME280;27838;43.858;25.974;2023-05-25T01:35:10;100892.59;;;22.25;50.88
42169;BME280;27838;43.858;25.974;2023-05-25T01:37:44;100893.59;;;22.22;51.16
42169;BME280;27838;43.858;25.974;2023-05-25T01:40:12;100897.13;;;22.23;51.43
42169;BME280;27838;43.858;25.974;2023-05-25T01:42:39;100887.63;;;22.17;51.33
42169;BME280;27838;43.858;25.974;2023-05-25T01:45:07;100888.50;;;22.18;51.58
42169;BME280;27838;43.858;25.974;2023-05-25T01:47:52;100892.88;;;22.19;51.61
42169;BME280;27838;43.858;25.974;2023-05-25T01:50:33;100892.88;;;22.19;51.76
42169;BME280;27838;43.858;25.974;2023-05-25T01:53:03;100892.31;;;22.12;51.59
42169;BME280;27838;43.858;25.974;2023-05-25T01:55:35;100892.22;;;22.14;51.46
42169;BME280;27838;43.858;25.974;2023-05-25T01:58:04;100882.88;;;22.05;51.51
42169;BME280;27838;43.858;25.974;2023-05-25T02:00:32;100883.88;;;22.02;51.44
42169;BME280;27838;43.858;25.974;2023-05-25T02:03:00;100881.38;;;21.99;51.49
42169;BME280;27838;43.858;25.974;2023-05-25T02:05:27;100889.47;;;21.96;51.49
42169;BME280;27838;43.858;25.974;2023-05-25T02:07:54;100887.22;;;21.87;51.91
42169;BME280;27838;43.858;25.974;2023-05-25T02:10:20;100898.78;;;21.86;51.99
42169;BME280;27838;43.858;25.974;2023-05-25T02:12:47;100891.75;;;21.85;52.17
42169;BME280;27838;43.858;25.974;2023-05-25T02:15:14;100882.47;;;21.75;52.30
42169;BME280;27838;43.858;25.974;2023-05-25T02:17:41;100887.00;;;21.73;52.53
42169;BME280;27838;43.858;25.974;2023-05-25T02:20:08;100890.56;;;21.72;52.14
42169;BME280;27838;43.858;25.974;2023-05-25T02:22:35;100902.13;;;21.71;52.36
42169;BME280;27838;43.858;25.974;2023-05-25T02:25:02;100879.69;;;21.57;52.29
42169;BME280;27838;43.858;25.974;2023-05-25T02:27:28;100906.47;;;21.72;52.42
42169;BME280;27838;43.858;25.974;2023-05-25T02:29:55;100900.50;;;21.66;52.60
42169;BME280;27838;43.858;25.974;2023-05-25T02:32:21;100899.16;;;21.56;52.47
42169;BME280;27838;43.858;25.974;2023-05-25T02:34:48;100898.97;;;21.61;52.68
42169;BME280;27838;43.858;25.974;2023-05-25T02:37:15;100910.31;;;21.64;52.38
42169;BME280;27838;43.858;25.974;2023-05-25T02:39:42;100904.88;;;21.67;51.97
42169;BME280;27838;43.858;25.974;2023-05-25T02:42:08;100913.75;;;21.66;51.94
42169;BME280;27838;43.858;25.974;2023-05-25T02:44:36;100914.84;;;21.62;52.10
42169;BME280;27838;43.858;25.974;2023-05-25T02:47:03;100917.63;;;21.59;52.12
42169;BME280;27838;43.858;25.974;2023-05-25T02:49:30;100925.44;;;21.62;52.03
42169;BME280;27838;43.858;25.974;2023-05-25T02:51:58;100923.88;;;21.58;52.41
42169;BME280;27838;43.858;25.974;2023-05-25T02:54:25;100940.69;;;21.57;52.39
42169;BME280;27838;43.858;25.974;2023-05-25T02:56:51;100933.94;;;21.50;52.11
42169;BME280;27838;43.858;25.974;2023-05-25T02:59:18;100940.31;;;21.44;52.52
42169;BME280;27838;43.858;25.974;2023-05-25T03:01:44;100948.09;;;21.49;52.65
42169;BME280;27838;43.858;25.974;2023-05-25T03:04:11;100947.19;;;21.50;52.76
42169;BME280;27838;43.858;25.974;2023-05-25T03:06:37;100946.41;;;21.48;52.82
42169;BME280;27838;43.858;25.974;2023-05-25T03:09:04;100949.84;;;21.50;53.09
42169;BME280;27838;43.858;25.974;2023-05-25T03:11:31;100947.06;;;21.53;52.69
42169;BME280;27838;43.858;25.974;2023-05-25T03:13:58;100943.69;;;21.49;52.71
42169;BME280;27838;43.858;25.974;2023-05-25T03:16:24;100939.22;;;21.50;52.67
42169;BME280;27838;43.858;25.974;2023-05-25T03:18:51;100938.44;;;21.48;52.82
42169;BME280;27838;43.858;25.974;2023-05-25T03:21:18;100941.09;;;21.48;52.64
42169;BME280;27838;43.858;25.974;2023-05-25T03:23:46;100946.41;;;21.48;52.78
42169;BME280;27838;43.858;25.974;2023-05-25T03:26:14;100943.81;;;21.46;52.67
42169;BME280;27838;43.858;25.974;2023-05-25T03:28:41;100938.59;;;21.43;53.05
42169;BME280;27838;43.858;25.974;2023-05-25T03:31:08;100952.63;;;21.47;53.00
42169;BME280;27838;43.858;25.974;2023-05-25T03:33:35;100949.84;;;21.50;53.08
42169;BME280;27838;43.858;25.974;2023-05-25T03:36:05;100947.06;;;21.53;52.83
42169;BME280;27838;43.858;25.974;2023-05-25T03:38:32;100953.16;;;21.55;52.87
42169;BME280;27838;43.858;25.974;2023-05-25T03:40:59;100958.34;;;21.58;52.81
42169;BME280;27838;43.858;25.974;2023-05-25T03:43:25;100961.06;;;21.57;52.82
42169;BME280;27838;43.858;25.974;2023-05-25T03:45:52;100959.31;;;21.56;53.19
42169;BME280;27838;43.858;25.974;2023-05-25T03:48:18;100955.81;;;21.55;53.37
42169;BME280;27838;43.858;25.974;2023-05-25T03:50:45;100947.84;;;21.55;53.41
42169;BME280;27838;43.858;25.974;2023-05-25T03:53:11;100954.88;;;21.56;53.58
42169;BME280;27838;43.858;25.974;2023-05-25T03:55:38;100947.78;;;21.57;53.64
42169;BME280;27838;43.858;25.974;2023-05-25T03:58:06;100954.75;;;21.59;53.90
42169;BME280;27838;43.858;25.974;2023-05-25T04:00:34;100954.75;;;21.59;53.82
42169;BME280;27838;43.858;25.974;2023-05-25T04:03:01;100953.78;;;21.62;53.95
42169;BME280;27838;43.858;25.974;2023-05-25T04:05:28;100959.94;;;21.62;53.92
42169;BME280;27838;43.858;25.974;2023-05-25T04:07:54;100956.34;;;21.63;54.02
42169;BME280;27838;43.858;25.974;2023-05-25T04:10:21;100969.63;;;21.63;54.04
42169;BME280;27838;43.858;25.974;2023-05-25T04:12:48;100970.53;;;21.62;54.17
42169;BME280;27838;43.858;25.974;2023-05-25T04:15:16;100973.00;;;21.67;54.25
42169;BME280;27838;43.858;25.974;2023-05-25T04:17:42;100976.56;;;21.66;54.24
42169;BME280;27838;43.858;25.974;2023-05-25T04:20:09;100981.81;;;21.67;54.31
42169;BME280;27838;43.858;25.974;2023-05-25T04:22:35;100983.41;;;21.72;54.33
42169;BME280;27838;43.858;25.974;2023-05-25T04:25:07;100991.34;;;21.72;53.93
42169;BME280;27838;43.858;25.974;2023-05-25T04:27:34;100991.25;;;21.75;54.04
42169;BME280;27838;43.858;25.974;2023-05-25T04:30:02;100992.25;;;21.72;53.72
42169;BME280;27838;43.858;25.974;2023-05-25T04:32:28;100994.00;;;21.72;53.48
42169;BME280;27838;43.858;25.974;2023-05-25T04:34:56;101000.94;;;21.76;53.61
42169;BME280;27838;43.858;25.974;2023-05-25T04:37:23;100987.84;;;21.71;53.13
42169;BME280;27838;43.858;25.974;2023-05-25T04:39:51;100999.75;;;21.83;53.61
42169;BME280;27838;43.858;25.974;2023-05-25T04:42:18;101003.06;;;21.88;53.26
42169;BME280;27838;43.858;25.974;2023-05-25T04:44:48;101006.50;;;21.90;53.17
42169;BME280;27838;43.858;25.974;2023-05-25T04:47:15;101002.78;;;21.94;52.89
42169;BME280;27838;43.858;25.974;2023-05-25T04:49:41;101015.00;;;21.98;52.87
42169;BME280;27838;43.858;25.974;2023-05-25T04:52:08;101016.84;;;21.96;53.04
42169;BME280;27838;43.858;25.974;2023-05-25T04:54:34;101011.53;;;21.96;52.87
42169;BME280;27838;43.858;25.974;2023-05-25T04:57:01;101017.50;;;22.01;53.22
42169;BME280;27838;43.858;25.974;2023-05-25T04:59:28;101022.63;;;22.06;53.13
42169;BME280;27838;43.858;25.974;2023-05-25T05:01:54;101018.84;;;22.12;52.98
42169;BME280;27838;43.858;25.974;2023-05-25T05:04:21;101023.16;;;22.14;53.15
42169;BME280;27838;43.858;25.974;2023-05-25T05:06:48;101021.38;;;22.15;53.11
42169;BME280;27838;43.858;25.974;2023-05-25T05:09:15;101018.72;;;22.15;53.32
42169;BME280;27838;43.858;25.974;2023-05-25T05:11:42;101029.06;;;22.21;52.96
42169;BME280;27838;43.858;25.974;2023-05-25T05:14:08;101024.38;;;22.28;53.10
42169;BME280;27838;43.858;25.974;2023-05-25T05:16:35;101026.56;;;22.38;53.19
42169;BME280;27838;43.858;25.974;2023-05-25T05:19:02;101028.88;;;22.46;52.57
42169;BME280;27838;43.858;25.974;2023-05-25T05:21:28;101022.41;;;22.52;52.74
42169;BME280;27838;43.858;25.974;2023-05-25T05:23:56;101030.72;;;22.65;52.75
42169;BME280;27838;43.858;25.974;2023-05-25T05:26:23;101034.75;;;22.73;52.03
42169;BME280;27838;43.858;25.974;2023-05-25T05:28:49;101029.91;;;22.81;52.12
42169;BME280;27838;43.858;25.974;2023-05-25T05:31:16;101030.69;;;22.84;52.60
42169;BME280;27838;43.858;25.974;2023-05-25T05:33:43;101032.69;;;22.78;52.40
42169;BME280;27838;43.858;25.974;2023-05-25T05:36:10;101032.69;;;22.78;52.40
42169;BME280;27838;43.858;25.974;2023-05-25T05:38:36;101046.09;;;22.77;52.09
42169;BME280;27838;43.858;25.974;2023-05-25T05:41:04;101049.66;;;22.76;52.17
42169;BME280;27838;43.858;25.974;2023-05-25T05:43:35;101045.38;;;22.73;52.24
42169;BME280;27838;43.858;25.974;2023-05-25T05:46:03;101054.25;;;22.72;52.42
42169;BME280;27838;43.858;25.974;2023-05-25T05:48:30;101058.50;;;22.76;53.30
42169;BME280;27838;43.858;25.974;2023-05-25T05:50:56;101063.41;;;22.86;53.10
42169;BME280;27838;43.858;25.974;2023-05-25T05:53:23;101070.81;;;22.98;52.99
42169;BME280;27838;43.858;25.974;2023-05-25T05:55:50;101067.75;;;23.07;52.49
42169;BME280;27838;43.858;25.974;2023-05-25T05:58:18;101057.75;;;23.12;52.55
42169;BME280;27838;43.858;25.974;2023-05-25T06:00:45;101064.88;;;23.12;52.95
42169;BME280;27838;43.858;25.974;2023-05-25T06:03:11;101067.53;;;23.12;52.64
42169;BME280;27838;43.858;25.974;2023-05-25T06:05:38;101065.72;;;23.12;52.91
42169;BME280;27838;43.858;25.974;2023-05-25T06:08:05;101073.72;;;23.12;52.95
42169;BME280;27838;43.858;25.974;2023-05-25T06:10:32;101070.81;;;23.17;52.92
42169;BME280;27838;43.858;25.974;2023-05-25T06:12:58;101066.38;;;23.17;53.62
42169;BME280;27838;43.858;25.974;2023-05-25T06:15:25;101071.25;;;23.27;53.66
42169;BME280;27838;43.858;25.974;2023-05-25T06:17:52;101059.69;;;23.28;53.57
42169;BME280;27838;43.858;25.974;2023-05-25T06:20:18;101079.59;;;23.38;53.15
42169;BME280;27838;43.858;25.974;2023-05-25T06:22:45;101076.75;;;23.41;53.30
42169;BME280;27838;43.858;25.974;2023-05-25T06:25:11;101073.09;;;23.44;52.74
42169;BME280;27838;43.858;25.974;2023-05-25T06:27:38;101080.50;;;23.56;52.41
42169;BME280;27838;43.858;25.974;2023-05-25T06:30:05;101081.84;;;23.65;52.16
42169;BME280;27838;43.858;25.974;2023-05-25T06:32:33;101084.44;;;23.66;51.71
42169;BME280;27838;43.858;25.974;2023-05-25T06:34:59;101085.13;;;23.70;51.54
42169;BME280;27838;43.858;25.974;2023-05-25T06:37:26;101075.56;;;23.66;51.58
42169;BME280;27838;43.858;25.974;2023-05-25T06:39:59;101092.81;;;23.76;51.34
42169;BME280;27838;43.858;25.974;2023-05-25T06:42:26;101088.63;;;23.89;51.24
42169;BME280;27838;43.858;25.974;2023-05-25T06:44:53;101094.53;;;23.96;50.91
42169;BME280;27838;43.858;25.974;2023-05-25T06:47:19;101090.69;;;24.02;51.08
42169;BME280;27838;43.858;25.974;2023-05-25T06:49:46;101095.72;;;24.08;50.96
42169;BME280;27838;43.858;25.974;2023-05-25T06:52:12;101096.22;;;24.15;51.02
42169;BME280;27838;43.858;25.974;2023-05-25T06:54:39;101095.09;;;24.20;50.87
42169;BME280;27838;43.858;25.974;2023-05-25T06:57:06;101088.50;;;24.27;50.69
42169;BME280;27838;43.858;25.974;2023-05-25T06:59:32;101085.66;;;24.30;50.51
42169;BME280;27838;43.858;25.974;2023-05-25T07:01:59;101095.53;;;24.28;50.35
42169;BME280;27838;43.858;25.974;2023-05-25T07:04:26;101089.13;;;24.33;50.41
42169;BME280;27838;43.858;25.974;2023-05-25T07:06:52;101097.75;;;24.38;50.42
42169;BME280;27838;43.858;25.974;2023-05-25T07:09:19;101085.03;;;24.43;50.39
42169;BME280;27838;43.858;25.974;2023-05-25T07:11:46;101095.34;;;24.49;49.92
42169;BME280;27838;43.858;25.974;2023-05-25T07:14:12;101084.09;;;24.44;49.53
42169;BME280;27838;43.858;25.974;2023-05-25T07:16:39;101082.19;;;24.46;48.76
42169;BME280;27838;43.858;25.974;2023-05-25T07:19:05;101088.91;;;24.53;49.00
42169;BME280;27838;43.858;25.974;2023-05-25T07:21:32;101086.81;;;24.60;48.50
42169;BME280;27838;43.858;25.974;2023-05-25T07:23:59;101089.88;;;24.69;48.37
42169;BME280;27838;43.858;25.974;2023-05-25T07:26:26;101091.72;;;24.85;48.57
42169;BME280;27838;43.858;25.974;2023-05-25T07:28:52;101084.91;;;24.95;48.00
42169;BME280;27838;43.858;25.974;2023-05-25T07:31:19;101091.38;;;25.07;47.25
42169;BME280;27838;43.858;25.974;2023-05-25T07:33:46;101091.75;;;25.17;47.87
42169;BME280;27838;43.858;25.974;2023-05-25T07:36:13;101086.66;;;25.12;47.46
42169;BME280;27838;43.858;25.974;2023-05-25T07:38:40;101082.38;;;25.10;47.92
42169;BME280;27838;43.858;25.974;2023-05-25T07:41:07;101082.09;;;25.14;48.45
42169;BME280;27838;43.858;25.974;2023-05-25T07:43:33;101091.41;;;25.23;48.55
42169;BME280;27838;43.858;25.974;2023-05-25T07:46:01;101088.53;;;25.28;47.79
42169;BME280;27838;43.858;25.974;2023-05-25T07:48:28;101081.38;;;25.28;47.83
42169;BME280;27838;43.858;25.974;2023-05-25T07:50:54;101075.63;;;25.36;47.55
42169;BME280;27838;43.858;25.974;2023-05-25T07:53:21;101078.59;;;25.46;48.20
42169;BME280;27838;43.858;25.974;2023-05-25T07:55:47;101082.38;;;25.57;48.19
42169;BME280;27838;43.858;25.974;2023-05-25T07:58:15;101076.78;;;25.62;47.27
42169;BME280;27838;43.858;25.974;2023-05-25T08:00:42;101065.91;;;25.65;47.66
42169;BME280;27838;43.858;25.974;2023-05-25T08:03:09;101078.66;;;25.76;47.49
42169;BME280;27838;43.858;25.974;2023-05-25T08:05:36;101084.06;;;25.90;46.94
42169;BME280;27838;43.858;25.974;2023-05-25T08:08:02;101081.91;;;25.97;46.79
42169;BME280;27838;43.858;25.974;2023-05-25T08:10:29;101084.50;;;25.98;46.70
42169;BME280;27838;43.858;25.974;2023-05-25T08:12:57;101081.19;;;26.09;46.56
42169;BME280;27838;43.858;25.974;2023-05-25T08:15:24;101074.63;;;26.15;45.98
42169;BME280;27838;43.858;25.974;2023-05-25T08:17:51;101085.56;;;26.10;45.82
42169;BME280;27838;43.858;25.974;2023-05-25T08:20:17;101077.53;;;26.10;44.82
42169;BME280;27838;43.858;25.974;2023-05-25T08:22:44;101071.84;;;26.16;45.31
42169;BME280;27838;43.858;25.974;2023-05-25T08:25:10;101070.13;;;26.15;45.64
42169;BME280;27838;43.858;25.974;2023-05-25T08:27:37;101085.22;;;26.31;45.98
42169;BME280;27838;43.858;25.974;2023-05-25T08:30:04;101070.44;;;26.25;45.97
42169;BME280;27838;43.858;25.974;2023-05-25T08:32:31;101071.78;;;26.32;46.07
42169;BME280;27838;43.858;25.974;2023-05-25T08:34:57;101076.94;;;26.35;46.15
42169;BME280;27838;43.858;25.974;2023-05-25T08:37:24;101075.88;;;26.38;46.06
42169;BME280;27838;43.858;25.974;2023-05-25T08:39:50;101079.72;;;26.48;45.47
42169;BME280;27838;43.858;25.974;2023-05-25T08:42:17;101076.69;;;26.54;46.28
42169;BME280;27838;43.858;25.974;2023-05-25T08:44:43;101077.09;;;26.63;46.31
42169;BME280;27838;43.858;25.974;2023-05-25T08:47:11;101082.06;;;26.69;44.29
42169;BME280;27838;43.858;25.974;2023-05-25T08:49:39;101074.22;;;26.66;44.57
42169;BME280;27838;43.858;25.974;2023-05-25T08:52:09;101068.50;;;26.72;45.10
42169;BME280;27838;43.858;25.974;2023-05-25T08:54:42;101065.25;;;26.81;43.94
42169;BME280;27838;43.858;25.974;2023-05-25T08:57:14;101063.25;;;26.85;43.75
42169;BME280;27838;43.858;25.974;2023-05-25T08:59:51;101071.16;;;26.86;42.52
42169;BME280;27838;43.858;25.974;2023-05-25T09:02:28;101069.63;;;26.97;43.12
42169;BME280;27838;43.858;25.974;2023-05-25T09:04:59;101066.88;;;26.98;41.21
42169;BME280;27838;43.858;25.974;2023-05-25T09:07:29;101058.53;;;27.03;40.69
42169;BME280;27838;43.858;25.974;2023-05-25T09:09:56;101059.38;;;27.18;40.07
42169;BME280;27838;43.858;25.974;2023-05-25T09:12:30;101056.88;;;27.29;39.83
42169;BME280;27838;43.858;25.974;2023-05-25T09:14:57;101055.59;;;27.35;39.20
42169;BME280;27838;43.858;25.974;2023-05-25T09:17:24;101052.94;;;27.35;39.14
42169;BME280;27838;43.858;25.974;2023-05-25T09:19:50;101051.59;;;27.42;38.52
42169;BME280;27838;43.858;25.974;2023-05-25T09:22:17;101046.25;;;27.42;38.40
42169;BME280;27838;43.858;25.974;2023-05-25T09:24:44;101047.56;;;27.49;38.89
42169;BME280;27838;43.858;25.974;2023-05-25T09:27:11;101033.00;;;27.53;39.04
42169;BME280;27838;43.858;25.974;2023-05-25T09:29:38;101044.81;;;27.63;38.78
42169;BME280;27838;43.858;25.974;2023-05-25T09:32:05;101041.59;;;27.71;39.22
42169;BME280;27838;43.858;25.974;2023-05-25T09:34:31;101041.41;;;27.74;39.09
42169;BME280;27838;43.858;25.974;2023-05-25T09:36:59;101043.34;;;27.72;39.80
42169;BME280;27838;43.858;25.974;2023-05-25T09:39:27;101031.78;;;27.72;39.29
42169;BME280;27838;43.858;25.974;2023-05-25T09:41:53;101033.16;;;27.77;40.06
42169;BME280;27838;43.858;25.974;2023-05-25T09:44:20;101037.16;;;27.84;40.06
42169;BME280;27838;43.858;25.974;2023-05-25T09:46:47;101031.19;;;27.94;39.63
42169;BME280;27838;43.858;25.974;2023-05-25T09:49:13;101028.00;;;28.01;38.93
42169;BME280;27838;43.858;25.974;2023-05-25T09:51:40;101019.22;;;28.12;39.28
42169;BME280;27838;43.858;25.974;2023-05-25T09:54:09;101011.28;;;28.11;38.40
42169;BME280;27838;43.858;25.974;2023-05-25T09:56:35;101012.78;;;28.15;38.67
42169;BME280;27838;43.858;25.974;2023-05-25T09:59:02;101019.97;;;28.14;38.15
42169;BME280;27838;43.858;25.974;2023-05-25T10:01:31;101008.41;;;28.14;38.57
42169;BME280;27838;43.858;25.974;2023-05-25T10:03:58;101011.16;;;28.25;38.53
42169;BME280;27838;43.858;25.974;2023-05-25T10:06:26;101018.78;;;28.31;38.48
42169;BME280;27838;43.858;25.974;2023-05-25T10:08:54;101017.06;;;28.30;37.24
42169;BME280;27838;43.858;25.974;2023-05-25T10:11:23;101005.72;;;28.27;37.98
42169;BME280;27838;43.858;25.974;2023-05-25T10:13:52;100993.59;;;28.34;38.53
42169;BME280;27838;43.858;25.974;2023-05-25T10:16:23;100997.31;;;28.44;37.90
42169;BME280;27838;43.858;25.974;2023-05-25T10:18:57;100990.78;;;28.48;38.09
42169;BME280;27838;43.858;25.974;2023-05-25T10:21:28;100982.13;;;28.57;38.41
42169;BME280;27838;43.858;25.974;2023-05-25T10:24:02;100971.94;;;28.62;37.49
42169;BME280;27838;43.858;25.974;2023-05-25T10:26:34;100964.50;;;28.66;37.71
42169;BME280;27838;43.858;25.974;2023-05-25T10:29:02;100956.22;;;28.69;38.31
42169;BME280;27838;43.858;25.974;2023-05-25T10:31:30;100962.53;;;28.81;37.58
42169;BME280;27838;43.858;25.974;2023-05-25T10:33:58;100951.63;;;28.95;36.91
42169;BME280;27838;43.858;25.974;2023-05-25T10:36:26;100951.28;;;29.00;35.23
42169;BME280;27838;43.858;25.974;2023-05-25T10:38:53;100947.66;;;29.01;36.12
42169;BME280;27838;43.858;25.974;2023-05-25T10:41:20;100951.13;;;29.14;35.26
42169;BME280;27838;43.858;25.974;2023-05-25T10:43:47;100951.53;;;29.21;34.85
42169;BME280;27838;43.858;25.974;2023-05-25T10:46:14;100943.66;;;29.31;35.06
42169;BME280;27838;43.858;25.974;2023-05-25T10:48:46;100946.88;;;29.36;34.66
42169;BME280;27838;43.858;25.974;2023-05-25T10:51:14;100944.06;;;29.37;34.39
42169;BME280;27838;43.858;25.974;2023-05-25T10:53:45;100934.78;;;29.42;33.94
42169;BME280;27838;43.858;25.974;2023-05-25T10:56:12;100930.28;;;29.42;33.68
42169;BME280;27838;43.858;25.974;2023-05-25T10:58:41;100933.00;;;29.53;31.89
42169;BME280;27838;43.858;25.974;2023-05-25T11:01:13;100934.47;;;29.58;31.86
42169;BME280;27838;43.858;25.974;2023-05-25T11:06:10;100935.72;;;29.65;32.04
42169;BME280;27838;43.858;25.974;2023-05-25T11:08:55;100919.38;;;29.68;32.00
42169;BME280;27838;43.858;25.974;2023-05-25T11:14:32;100922.44;;;29.74;32.91
42169;BME280;27838;43.858;25.974;2023-05-25T11:17:04;100915.75;;;29.80;32.89
42169;BME280;27838;43.858;25.974;2023-05-25T11:24:52;100909.41;;;30.04;31.98
42169;BME280;27838;43.858;25.974;2023-05-25T11:27:23;100906.97;;;30.12;32.35
42169;BME280;27838;43.858;25.974;2023-05-25T11:29:50;100895.38;;;30.11;31.66
42169;BME280;27838;43.858;25.974;2023-05-25T11:32:17;100894.53;;;30.11;32.21
42169;BME280;27838;43.858;25.974;2023-05-25T11:34:45;100899.91;;;30.11;31.80
42169;BME280;27838;43.858;25.974;2023-05-25T11:37:15;100881.81;;;30.13;31.77
42169;BME280;27838;43.858;25.974;2023-05-25T11:39:51;100884.13;;;30.18;31.40
42169;BME280;27838;43.858;25.974;2023-05-25T11:42:24;100879.72;;;30.17;31.75
42169;BME280;27838;43.858;25.974;2023-05-25T11:44:51;100881.91;;;30.23;31.25
42169;BME280;27838;43.858;25.974;2023-05-25T11:47:20;100878.88;;;30.27;30.27
42169;BME280;27838;43.858;25.974;2023-05-25T11:49:47;100874.09;;;30.31;30.82
42169;BME280;27838;43.858;25.974;2023-05-25T11:52:19;100868.47;;;30.34;31.19
42169;BME280;27838;43.858;25.974;2023-05-25T11:54:46;100872.75;;;30.25;30.80
42169;BME280;27838;43.858;25.974;2023-05-25T11:57:18;100871.53;;;30.07;30.84
42169;BME280;27838;43.858;25.974;2023-05-25T11:59:58;100873.25;;;29.85;28.79
42169;BME280;27838;43.858;25.974;2023-05-25T12:02:36;100876.34;;;29.56;29.07
42169;BME280;27838;43.858;25.974;2023-05-25T12:05:03;100881.94;;;29.42;30.58
42169;BME280;27838;43.858;25.974;2023-05-25T12:07:31;100870.91;;;29.23;30.76
42169;BME280;27838;43.858;25.974;2023-05-25T12:10:11;100861.09;;;29.10;32.44
42169;BME280;27838;43.858;25.974;2023-05-25T12:12:42;100861.53;;;29.04;32.45
42169;BME280;27838;43.858;25.974;2023-05-25T12:15:11;100863.75;;;28.99;31.14
42169;BME280;27838;43.858;25.974;2023-05-25T12:17:41;100854.09;;;28.96;31.47
42169;BME280;27838;43.858;25.974;2023-05-25T12:20:09;100866.97;;;28.91;31.79
42169;BME280;27838;43.858;25.974;2023-05-25T12:22:38;100861.00;;;28.88;32.07
42169;BME280;27838;43.858;25.974;2023-05-25T12:25:06;100855.03;;;28.95;31.54
42169;BME280;27838;43.858;25.974;2023-05-25T12:27:34;100846.22;;;29.06;31.39
42169;BME280;27838;43.858;25.974;2023-05-25T12:30:02;100851.63;;;29.17;31.87
42169;BME280;27838;43.858;25.974;2023-05-25T12:32:29;100840.06;;;29.28;31.67
42169;BME280;27838;43.858;25.974;2023-05-25T12:35:05;100836.28;;;29.31;31.45
42169;BME280;27838;43.858;25.974;2023-05-25T12:37:33;100845.34;;;29.41;31.72
42169;BME280;27838;43.858;25.974;2023-05-25T12:39:59;100857.09;;;29.51;31.19
42169;BME280;27838;43.858;25.974;2023-05-25T12:42:26;100845.13;;;29.55;30.23
42169;BME280;27838;43.858;25.974;2023-05-25T12:44:56;100842.94;;;29.61;29.00
42169;BME280;27838;43.858;25.974;2023-05-25T12:47:25;100851.38;;;29.67;29.36
42169;BME280;27838;43.858;25.974;2023-05-25T12:50:11;100849.28;;;29.71;27.98
42169;BME280;27838;43.858;25.974;2023-05-25T12:52:42;100857.38;;;29.82;27.98
42169;BME280;27838;43.858;25.974;2023-05-25T12:55:25;100856.41;;;29.83;27.31